Time;durP1;ratioP1;P1;durP2;ratioP2;P2;SDS_P1;SDS_P2;PMS_P1;PMS_P2;Temp;Humidity;BMP_temperature;BMP_pressure;BME280_temperature;BME280_humidity;BME280_pressure;Samples;Min_cycle;Max_cycle;Signal;HPM_P1;HPM_P2
2022/06/23 04:02:31;;;;;;;35.37;21.80;;;20.00;99.90;;;;;;5077383;23;20519;-65
2022/06/23 04:05:10;;;;;;;27.10;21.40;;;20.00;99.90;;;;;;5013603;28;20441;-66
2022/06/23 04:07:47;;;;;;;23.67;21.17;;;20.00;99.90;;;;;;5014131;28;20783;-65
2022/06/23 04:10:20;;;;;;;23.00;19.00;;;20.00;99.90;;;;;;5013848;28;20437;-65
2022/06/23 04:12:52;;;;;;;23.67;19.80;;;20.00;99.90;;;;;;5014009;28;20433;-66
2022/06/23 04:15:26;;;;;;;20.73;18.77;;;20.00;99.90;;;;;;5013789;28;20924;-65
2022/06/23 04:17:58;;;;;;;19.63;17.07;;;20.10;99.90;;;;;;5013887;28;20491;-65
2022/06/23 04:20:32;;;;;;;21.67;17.77;;;20.10;99.90;;;;;;5014138;28;20444;-65
2022/06/23 04:23:02;;;;;;;21.97;18.27;;;20.10;99.90;;;;;;5017710;28;20447;-66
2022/06/23 04:25:41;;;;;;;18.87;16.10;;;20.10;99.90;;;;;;5017653;28;20456;-66
2022/06/23 04:28:23;;;;;;;20.00;17.97;;;20.10;99.90;;;;;;5017181;28;20440;-65
2022/06/23 04:30:53;;;;;;;19.10;17.30;;;20.10;99.90;;;;;;5017607;28;20516;-66
2022/06/23 04:33:23;;;;;;;21.97;17.10;;;20.10;99.90;;;;;;5017459;28;20452;-65
2022/06/23 04:35:52;;;;;;;21.57;19.20;;;20.00;99.90;;;;;;5017316;28;20777;-65
2022/06/23 04:38:27;;;;;;;21.23;19.00;;;20.10;99.90;;;;;;5017143;28;20452;-65
2022/06/23 04:41:00;;;;;;;26.00;20.17;;;20.00;99.90;;;;;;5017388;28;20487;-65
2022/06/23 04:43:35;;;;;;;26.97;23.30;;;20.00;99.90;;;;;;5016990;28;20509;-65
2022/06/23 04:46:07;;;;;;;28.40;23.40;;;20.00;99.90;;;;;;5017329;28;20472;-65
2022/06/23 04:48:44;;;;;;;19.10;17.10;;;20.00;99.90;;;;;;5017880;28;20507;-65
2022/06/23 04:51:23;;;;;;;20.10;18.20;;;20.00;99.90;;;;;;5017216;28;20476;-64
2022/06/23 04:53:57;;;;;;;22.90;20.63;;;20.10;99.90;;;;;;5016940;28;20446;-65
2022/06/23 04:56:43;;;;;;;23.30;20.93;;;20.10;99.90;;;;;;5017141;28;20448;-64
2022/06/23 04:59:33;;;;;;;27.33;21.20;;;20.10;99.90;;;;;;5016966;28;20439;-63
2022/06/23 05:02:02;;;;;;;23.63;20.73;;;20.20;99.90;;;;;;5016557;28;20491;-63
2022/06/23 05:04:38;;;;;;;27.90;22.23;;;20.20;99.90;;;;;;5016924;28;20463;-64
2022/06/23 05:07:06;;;;;;;22.40;19.63;;;20.30;99.90;;;;;;5016870;28;20440;-64
2022/06/23 05:09:37;;;;;;;20.70;18.60;;;20.40;99.90;;;;;;5016613;28;20461;-64
2022/06/23 05:12:07;;;;;;;22.80;19.87;;;20.40;99.90;;;;;;5016746;28;20472;-64
2022/06/23 05:14:39;;;;;;;22.50;20.10;;;20.50;99.90;;;;;;5016799;28;20452;-65
2022/06/23 06:34:28;;;;;;;13.98;12.30;;;21.70;99.90;;;;;;5093065;27;20439;-64
2022/06/23 06:36:55;;;;;;;14.17;12.93;;;22.00;99.90;;;;;;5094652;28;20175;-63
2022/06/23 06:39:26;;;;;;;12.87;10.97;;;22.40;99.90;;;;;;5092152;28;20456;-63
2022/06/23 06:41:58;;;;;;;14.20;12.80;;;22.70;99.90;;;;;;5094706;28;20878;-64
2022/06/23 06:44:25;;;;;;;17.77;12.37;;;23.10;99.90;;;;;;5092091;28;20502;-64
2022/06/23 06:46:53;;;;;;;13.60;10.80;;;23.50;99.90;;;;;;5092550;28;20804;-64
2022/06/23 06:49:24;;;;;;;15.10;10.27;;;23.90;99.90;;;;;;5091914;28;20821;-64
2022/06/23 06:51:53;;;;;;;15.53;13.23;;;24.20;99.90;;;;;;5091360;28;20484;-63
2022/06/23 06:54:24;;;;;;;19.50;13.67;;;24.60;99.90;;;;;;5091157;28;20473;-63
2022/06/23 06:56:54;;;;;;;20.23;11.63;;;24.70;99.90;;;;;;5091225;28;20444;-64
2022/06/23 06:59:25;;;;;;;11.63;10.43;;;24.90;99.90;;;;;;5091405;28;20438;-65
2022/06/23 07:01:57;;;;;;;12.00;10.50;;;25.20;99.90;;;;;;5091251;28;20473;-65
2022/06/23 07:04:31;;;;;;;14.77;9.43;;;25.80;99.90;;;;;;5091392;28;20434;-65
2022/06/23 07:07:02;;;;;;;12.40;10.00;;;26.00;99.90;;;;;;5091290;28;20441;-66
2022/06/23 07:09:36;;;;;;;12.87;8.77;;;26.20;99.90;;;;;;5091021;28;20430;-65
2022/06/23 07:12:09;;;;;;;11.73;8.53;;;26.30;99.90;;;;;;5090697;28;20473;-65
2022/06/23 07:14:41;;;;;;;7.83;6.90;;;26.70;99.90;;;;;;5090897;28;20457;-66
2022/06/23 07:17:16;;;;;;;15.27;8.30;;;27.00;99.90;;;;;;5090891;28;20445;-65
2022/06/23 07:19:50;;;;;;;10.33;9.23;;;26.80;99.90;;;;;;5091616;28;20444;-65
2022/06/23 07:22:21;;;;;;;14.87;9.80;;;26.40;99.90;;;;;;5091113;28;20980;-66
2022/06/23 07:24:52;;;;;;;11.60;10.07;;;26.10;99.90;;;;;;5090543;28;20433;-66
2022/06/23 07:27:25;;;;;;;10.60;7.83;;;25.90;99.90;;;;;;5091178;28;20434;-67
2022/06/23 07:29:57;;;;;;;12.30;8.10;;;26.40;99.90;;;;;;5090579;28;20466;-65
2022/06/23 07:32:35;;;;;;;9.37;6.13;;;27.10;99.90;;;;;;5090044;28;20485;-65
2022/06/23 07:35:17;;;;;;;9.77;6.60;;;28.00;99.90;;;;;;5090329;28;20825;-65
2022/06/23 07:37:47;;;;;;;14.07;6.60;;;28.60;99.90;;;;;;5090285;28;20438;-65
2022/06/23 07:40:17;;;;;;;15.50;7.90;;;29.20;99.90;;;;;;5090064;28;20433;-65
2022/06/23 07:42:52;;;;;;;9.90;6.63;;;29.40;99.90;;;;;;5089849;28;20793;-65
2022/06/23 07:45:23;;;;;;;11.40;6.70;;;29.60;99.90;;;;;;5078806;28;20433;-66
2022/06/23 07:47:50;;;;;;;11.40;6.30;;;29.80;99.90;;;;;;5076445;28;20844;-65
2022/06/23 07:50:20;;;;;;;11.37;7.03;;;30.10;99.90;;;;;;5076457;28;20862;-65
2022/06/23 07:52:48;;;;;;;11.70;7.30;;;30.30;99.90;;;;;;5076492;28;20474;-66
2022/06/23 07:55:21;;;;;;;8.33;6.67;;;30.70;99.90;;;;;;5076438;28;20798;-66
2022/06/23 07:57:48;;;;;;;9.80;6.90;;;31.00;99.90;;;;;;5077495;28;20430;-66
2022/06/23 08:00:15;;;;;;;8.03;7.20;;;31.30;99.90;;;;;;5077905;28;20453;-67
2022/06/23 08:02:47;;;;;;;7.47;6.73;;;31.70;99.90;;;;;;5077204;28;20446;-66
2022/06/23 08:05:19;;;;;;;8.57;7.03;;;31.90;99.90;;;;;;5076067;28;20804;-65
2022/06/23 08:07:49;;;;;;;17.03;7.67;;;31.90;99.90;;;;;;5076332;28;20897;-67
2022/06/23 08:10:19;;;;;;;9.10;6.97;;;32.10;99.90;;;;;;5077211;28;20789;-66
2022/06/23 08:12:55;;;;;;;9.00;6.03;;;32.40;99.90;;;;;;5076385;28;20519;-65
2022/06/23 08:18:25;;;;;;;9.07;6.37;;;32.10;99.90;;;;;;5076589;28;20417;-66
2022/06/23 08:20:59;;;;;;;11.50;6.30;;;32.40;99.90;;;;;;5076126;28;20980;-66
2022/06/23 08:23:31;;;;;;;9.30;5.60;;;32.50;99.90;;;;;;5075923;28;20430;-66
2022/06/23 08:25:58;;;;;;;11.33;6.03;;;33.00;99.90;;;;;;5075890;28;20430;-66
2022/06/23 08:28:25;;;;;;;11.37;5.20;;;32.80;99.90;;;;;;5075830;28;20457;-66
2022/06/23 08:30:52;;;;;;;9.30;5.23;;;32.60;99.90;;;;;;5075702;28;20474;-66
2022/06/23 08:33:18;;;;;;;8.77;5.93;;;32.40;99.70;;;;;;5075381;28;20500;-66
2022/06/23 08:35:49;;;;;;;13.50;6.13;;;32.00;99.30;;;;;;5075626;28;20454;-67
2022/06/23 08:38:21;;;;;;;7.10;4.10;;;32.10;99.90;;;;;;5075846;28;20905;-66
2022/06/23 08:41:15;;;;;;;6.80;4.37;;;32.40;99.50;;;;;;5075616;28;20482;-67
2022/06/23 08:43:47;;;;;;;6.47;3.93;;;32.70;99.20;;;;;;5075502;28;20493;-66
2022/06/23 08:46:23;;;;;;;7.27;3.90;;;32.90;97.50;;;;;;5075497;28;20446;-67
2022/06/23 08:48:59;;;;;;;10.60;4.93;;;33.40;95.30;;;;;;5075411;28;20434;-66
2022/06/23 08:51:35;;;;;;;7.70;4.00;;;33.80;93.70;;;;;;5075297;28;20479;-66
2022/06/23 08:54:11;;;;;;;7.90;4.60;;;33.90;93.10;;;;;;5075289;28;20465;-66
2022/06/23 08:56:46;;;;;;;13.30;4.00;;;34.00;92.40;;;;;;5074292;28;20438;-66
2022/06/23 08:59:20;;;;;;;7.07;4.33;;;34.40;92.00;;;;;;5074879;28;20433;-66
2022/06/23 09:01:55;;;;;;;8.40;4.90;;;34.50;90.60;;;;;;5075273;28;20480;-67
2022/06/23 09:04:32;;;;;;;10.57;3.80;;;34.70;88.20;;;;;;5075209;28;20488;-66
2022/06/23 09:07:04;;;;;;;6.40;3.57;;;34.70;89.50;;;;;;5075187;28;20429;-67
2022/06/23 09:09:38;;;;;;;9.23;3.60;;;35.00;86.80;;;;;;5075575;28;20487;-67
2022/06/23 09:12:16;;;;;;;11.53;4.10;;;35.40;89.70;;;;;;5074946;28;20468;-67
2022/06/23 09:14:57;;;;;;;10.03;3.50;;;35.60;83.30;;;;;;5074961;28;20506;-66
2022/06/23 09:17:52;;;;;;;5.87;2.80;;;35.60;84.20;;;;;;5075058;28;20492;-67
2022/06/23 09:20:37;;;;;;;4.67;2.90;;;35.90;79.10;;;;;;5068768;28;20485;-67
2022/06/23 09:23:27;;;;;;;9.03;4.53;;;36.20;77.00;;;;;;5074832;28;20475;-68
2022/06/23 09:26:01;;;;;;;5.20;3.27;;;36.10;76.80;;;;;;5075226;28;20438;-66
2022/06/23 09:28:42;;;;;;;6.37;3.57;;;36.30;79.60;;;;;;5074469;28;20897;-67
2022/06/23 09:31:20;;;;;;;7.77;3.60;;;36.40;74.30;;;;;;5074591;28;20477;-67
2022/06/23 09:34:03;;;;;;;5.00;3.37;;;36.20;73.20;;;;;;5074091;28;20481;-67
2022/06/23 09:37:02;;;;;;;5.30;3.60;;;36.50;73.40;;;;;;5077106;28;20488;-67
2022/06/23 09:39:57;;;;;;;12.33;4.30;;;36.20;76.10;;;;;;5081063;28;20904;-67
2022/06/23 09:43:03;;;;;;;8.70;4.40;;;36.40;72.90;;;;;;5077640;28;20473;-67
2022/06/23 09:45:53;;;;;;;8.83;4.30;;;36.30;77.10;;;;;;5074966;28;20457;-66
2022/06/23 09:48:37;;;;;;;11.30;4.37;;;36.70;76.70;;;;;;5065136;28;20954;-67
2022/06/23 09:51:31;;;;;;;8.57;4.10;;;36.80;73.70;;;;;;5074286;28;20473;-67
2022/06/23 09:54:15;;;;;;;6.90;3.40;;;36.90;70.00;;;;;;5082781;28;20458;-68
2022/06/23 09:57:01;;;;;;;12.43;3.43;;;36.90;71.10;;;;;;5080350;28;20433;-67
2022/06/23 09:59:55;;;;;;;7.97;5.17;;;36.90;70.40;;;;;;5074727;28;20456;-67
2022/06/23 10:02:46;;;;;;;7.37;4.13;;;37.00;72.10;;;;;;5074114;28;20493;-67
2022/06/23 10:05:43;;;;;;;4.70;3.73;;;37.10;74.20;;;;;;5071662;28;20488;-67
2022/06/23 10:08:24;;;;;;;7.93;3.77;;;37.50;72.80;;;;;;5068842;28;20553;-67
2022/06/23 10:11:18;;;;;;;7.07;4.90;;;37.50;71.90;;;;;;5074287;28;20473;-67
2022/06/23 10:14:02;;;;;;;7.43;4.70;;;37.60;71.80;;;;;;5073977;28;20983;-67
2022/06/23 10:16:47;;;;;;;7.60;4.17;;;37.90;69.80;;;;;;5074744;28;20434;-68
2022/06/23 10:19:35;;;;;;;8.93;4.10;;;38.20;68.70;;;;;;5074190;28;20438;-67
2022/06/23 10:22:28;;;;;;;7.83;3.80;;;37.80;67.40;;;;;;5074121;28;20476;-67
2022/06/23 10:25:14;;;;;;;9.90;3.80;;;37.30;71.00;;;;;;5071642;28;20469;-67
2022/06/23 10:28:01;;;;;;;6.37;3.50;;;36.60;69.80;;;;;;5074114;28;20559;-68
2022/06/23 10:30:34;;;;;;;4.03;3.23;;;36.90;73.30;;;;;;5075610;28;20442;-67
2022/06/23 10:33:38;;;;;;;4.70;2.97;;;37.30;64.80;;;;;;5073794;28;20458;-67
2022/06/23 10:36:22;;;;;;;7.70;3.83;;;37.50;63.50;;;;;;5074120;28;20517;-67
2022/06/23 10:38:59;;;;;;;7.90;3.60;;;37.70;65.40;;;;;;5073883;28;20456;-67
2022/06/23 10:41:38;;;;;;;8.73;4.27;;;37.90;68.70;;;;;;5073831;28;20831;-68
2022/06/23 10:44:23;;;;;;;5.90;3.70;;;38.00;65.20;;;;;;5073808;28;20442;-67
2022/06/23 10:46:59;;;;;;;10.13;4.17;;;38.00;68.40;;;;;;5073271;28;20442;-67
2022/06/23 10:49:42;;;;;;;12.97;4.50;;;37.90;65.90;;;;;;5073442;28;20434;-67
2022/06/23 10:52:36;;;;;;;9.17;4.03;;;37.70;66.00;;;;;;5073515;28;20512;-68
2022/06/23 10:55:33;;;;;;;8.40;3.53;;;38.10;66.90;;;;;;5061037;28;20983;-67
2022/06/23 10:58:30;;;;;;;6.20;4.27;;;38.00;62.50;;;;;;5073531;28;20434;-67
2022/06/23 11:01:12;;;;;;;7.57;3.40;;;37.80;61.00;;;;;;5073619;28;20502;-68
2022/06/23 11:04:08;;;;;;;4.30;3.90;;;37.20;63.60;;;;;;5073351;28;20430;-67
2022/06/23 11:07:00;;;;;;;6.90;4.73;;;36.10;65.10;;;;;;5073520;28;20895;-66
2022/06/23 11:09:44;;;;;;;7.37;3.97;;;35.60;69.80;;;;;;5070995;28;20457;-66
2022/06/23 11:12:30;;;;;;;6.73;3.73;;;35.50;66.70;;;;;;5073191;28;20474;-67
2022/06/23 11:15:08;;;;;;;8.57;3.60;;;35.50;66.90;;;;;;5073806;28;20796;-67
2022/06/23 11:17:47;;;;;;;6.40;4.70;;;35.70;65.80;;;;;;5072853;28;20951;-67
2022/06/23 11:20:27;;;;;;;7.00;3.10;;;35.60;66.90;;;;;;5075392;28;20441;-65
2022/06/23 11:23:05;;;;;;;7.67;3.87;;;35.80;63.60;;;;;;5076995;28;20437;-66
2022/06/23 11:25:43;;;;;;;9.70;4.17;;;35.40;70.20;;;;;;5077048;28;20430;-66
2022/06/23 11:28:19;;;;;;;7.10;3.83;;;35.30;71.40;;;;;;5076617;28;20916;-66
2022/06/23 11:31:02;;;;;;;7.40;4.10;;;35.00;70.70;;;;;;5076450;28;20476;-66
2022/06/23 11:33:53;;;;;;;8.93;4.43;;;34.80;69.90;;;;;;5076554;28;20488;-67
2022/06/23 11:36:40;;;;;;;8.53;3.70;;;34.40;67.90;;;;;;5076388;28;20915;-66
2022/06/23 11:39:41;;;;;;;6.53;3.73;;;34.10;69.20;;;;;;5076805;28;20438;-66
2022/06/23 11:42:33;;;;;;;5.60;3.40;;;34.10;75.00;;;;;;5076742;28;20813;-66
2022/06/23 11:45:19;;;;;;;6.90;4.37;;;34.00;74.10;;;;;;5076581;28;20438;-66
2022/06/23 11:48:02;;;;;;;9.13;4.23;;;34.00;70.00;;;;;;5076580;28;20488;-66
2022/06/23 11:50:39;;;;;;;4.60;3.73;;;34.00;70.30;;;;;;5076455;28;20834;-66
2022/06/23 11:53:26;;;;;;;9.63;4.10;;;33.90;70.60;;;;;;5076030;28;20954;-66
2022/06/23 11:55:56;;;;;;;8.13;4.70;;;33.80;71.60;;;;;;5076360;28;20434;-66
2022/06/23 11:58:44;;;;;;;7.73;4.60;;;33.60;70.00;;;;;;5076238;28;20453;-67
2022/06/23 12:01:15;;;;;;;7.30;4.17;;;33.30;70.10;;;;;;5076341;28;20477;-66
2022/06/23 12:04:02;;;;;;;8.43;4.10;;;33.40;71.10;;;;;;5076276;28;20437;-66
2022/06/23 12:06:46;;;;;;;4.87;4.13;;;33.40;70.20;;;;;;5076733;28;20533;-66
2022/06/23 12:09:22;;;;;;;10.23;4.23;;;33.10;68.40;;;;;;5075870;28;20916;-66
2022/06/23 12:11:49;;;;;;;6.13;3.90;;;33.10;72.90;;;;;;5076427;28;20474;-66
2022/06/23 12:14:18;;;;;;;5.83;3.80;;;33.10;69.80;;;;;;5076256;28;20473;-66
2022/06/23 12:16:53;;;;;;;8.17;4.90;;;33.00;72.40;;;;;;5076151;28;20972;-66
2022/06/23 12:19:25;;;;;;;16.07;6.37;;;33.00;77.30;;;;;;5076196;28;20434;-66
2022/06/23 12:21:59;;;;;;;11.10;4.70;;;33.00;77.60;;;;;;5076277;28;20474;-65
2022/06/23 12:24:36;;;;;;;6.23;4.10;;;33.10;71.50;;;;;;5076480;28;20891;-66
2022/06/23 12:27:08;;;;;;;6.97;4.33;;;33.20;75.20;;;;;;5076393;28;20493;-66
2022/06/23 12:29:45;;;;;;;8.10;4.67;;;33.30;74.50;;;;;;5076421;28;20445;-66
2022/06/23 12:32:17;;;;;;;8.37;4.33;;;33.10;73.20;;;;;;5076285;28;20473;-67
2022/06/23 12:34:56;;;;;;;9.37;4.20;;;33.10;74.50;;;;;;5076754;28;20467;-66
2022/06/23 12:37:30;;;;;;;8.00;4.50;;;33.20;73.90;;;;;;5075793;28;20441;-67
2022/06/23 12:40:04;;;;;;;5.00;3.60;;;33.10;74.30;;;;;;5075562;28;20430;-67
2022/06/23 12:42:35;;;;;;;8.93;4.20;;;33.20;77.70;;;;;;5075459;28;20916;-66
2022/06/23 12:45:21;;;;;;;17.53;4.50;;;33.30;71.20;;;;;;5075251;28;20435;-67
2022/06/23 12:48:01;;;;;;;7.87;4.47;;;33.30;71.20;;;;;;5075161;28;20438;-67
2022/06/23 12:50:43;;;;;;;8.70;4.40;;;33.30;72.10;;;;;;5075378;28;20438;-66
2022/06/23 12:53:33;;;;;;;8.00;4.30;;;33.10;70.90;;;;;;5075345;28;20464;-66
2022/06/23 12:56:18;;;;;;;8.90;4.37;;;33.10;70.60;;;;;;5062367;28;20489;-66
2022/06/23 12:58:50;;;;;;;12.93;4.63;;;32.90;74.20;;;;;;5075120;28;20445;-67
2022/06/23 13:01:30;;;;;;;9.40;4.40;;;33.00;76.80;;;;;;5075259;28;20610;-67
2022/06/23 13:04:01;;;;;;;7.60;4.73;;;33.00;76.10;;;;;;5075533;28;20438;-67
2022/06/23 13:06:37;;;;;;;7.50;4.20;;;33.10;72.60;;;;;;5075477;28;20505;-67
2022/06/23 13:09:21;;;;;;;12.90;4.93;;;33.10;73.70;;;;;;5075385;28;20446;-66
2022/06/23 13:11:56;;;;;;;8.73;4.40;;;33.00;72.20;;;;;;5075652;28;20477;-66
2022/06/23 13:14:28;;;;;;;9.37;4.43;;;33.10;76.10;;;;;;5075992;28;20466;-67
2022/06/23 13:17:02;;;;;;;10.07;4.57;;;33.20;72.90;;;;;;5075162;28;20442;-67
2022/06/23 13:19:35;;;;;;;7.77;5.07;;;33.30;73.90;;;;;;5074744;28;20856;-66
2022/06/23 13:22:09;;;;;;;12.57;6.50;;;33.30;74.60;;;;;;5074960;28;20470;-67
2022/06/23 13:24:37;;;;;;;10.30;4.80;;;33.30;74.80;;;;;;5074781;28;20901;-65
2022/06/23 13:27:14;;;;;;;10.80;5.37;;;33.10;73.60;;;;;;5074916;28;20458;-64
2022/06/23 13:29:48;;;;;;;8.20;5.10;;;33.00;71.90;;;;;;5075472;28;20448;-65
2022/06/23 13:32:24;;;;;;;6.43;3.90;;;33.00;73.10;;;;;;5086680;28;20478;-65
2022/06/23 13:34:58;;;;;;;10.20;5.20;;;32.90;71.60;;;;;;5085740;28;20458;-65
2022/06/23 13:37:31;;;;;;;13.27;5.30;;;32.90;73.40;;;;;;5075013;28;20499;-64
2022/06/23 13:40:15;;;;;;;5.73;4.57;;;32.90;71.90;;;;;;5074549;28;20441;-63
2022/06/23 13:42:49;;;;;;;7.80;4.20;;;32.80;72.50;;;;;;5074084;28;20474;-64
2022/06/23 13:45:28;;;;;;;8.50;4.63;;;33.00;73.40;;;;;;5074533;28;20433;-65
2022/06/23 13:48:01;;;;;;;6.20;4.43;;;33.00;72.00;;;;;;5074257;28;20438;-66
2022/06/23 13:50:33;;;;;;;16.83;5.30;;;32.90;70.80;;;;;;5074030;28;20940;-64
2022/06/23 13:53:06;;;;;;;9.47;4.57;;;33.00;71.30;;;;;;5074069;28;20442;-65
2022/06/23 13:55:41;;;;;;;10.97;4.63;;;33.10;69.00;;;;;;5074382;28;20917;-67
2022/06/23 13:58:17;;;;;;;9.43;4.77;;;33.20;69.80;;;;;;5074351;28;20442;-64
2022/06/23 14:00:50;;;;;;;8.33;4.70;;;33.20;71.00;;;;;;5073647;28;20969;-63
2022/06/23 14:03:22;;;;;;;12.57;4.47;;;33.30;69.30;;;;;;5074128;28;20462;-65
2022/06/23 14:05:56;;;;;;;7.03;4.43;;;33.30;70.20;;;;;;5074178;28;20434;-65
2022/06/23 14:08:30;;;;;;;9.00;4.60;;;33.40;70.70;;;;;;5074100;28;20426;-65
2022/06/23 14:11:03;;;;;;;6.90;4.63;;;33.40;65.60;;;;;;5073951;28;20478;-64
2022/06/23 14:13:36;;;;;;;9.67;4.70;;;33.40;69.00;;;;;;5073807;28;20446;-63
2022/06/23 14:16:08;;;;;;;12.60;5.00;;;33.30;68.20;;;;;;5073899;28;20462;-64
2022/06/23 14:18:40;;;;;;;6.60;4.70;;;33.10;66.50;;;;;;5073885;28;20465;-63
2022/06/23 14:21:22;;;;;;;13.80;5.20;;;33.10;67.90;;;;;;5073353;28;20551;-63
2022/06/23 14:23:59;;;;;;;5.30;4.70;;;33.10;69.30;;;;;;5073785;28;20434;-64
2022/06/23 14:26:35;;;;;;;9.10;4.70;;;33.20;70.30;;;;;;5073818;28;20430;-64
2022/06/23 14:29:08;;;;;;;7.80;4.70;;;33.00;67.50;;;;;;5073596;28;20434;-64
2022/06/23 14:31:41;;;;;;;9.40;4.37;;;33.00;69.10;;;;;;5073662;28;20477;-64
2022/06/23 14:34:17;;;;;;;8.40;4.60;;;33.10;69.70;;;;;;5073557;28;20462;-63
2022/06/23 14:36:51;;;;;;;6.67;4.50;;;32.90;69.10;;;;;;5073453;28;20544;-64
2022/06/23 14:39:23;;;;;;;10.47;5.47;;;32.90;66.50;;;;;;5073472;28;20431;-64
2022/06/23 14:42:10;;;;;;;7.47;4.73;;;32.90;67.40;;;;;;5073377;28;20466;-64
2022/06/23 14:44:50;;;;;;;6.80;5.10;;;32.90;69.60;;;;;;5073342;28;20453;-64
2022/06/23 14:47:31;;;;;;;9.40;4.83;;;32.90;68.30;;;;;;5074113;28;20453;-70
2022/06/23 14:50:24;;;;;;;11.70;4.20;;;32.60;69.60;;;;;;5073945;28;20438;-63
2022/06/23 14:52:59;;;;;;;8.80;5.23;;;32.60;70.20;;;;;;5073209;28;20842;-63
2022/06/23 14:55:34;;;;;;;8.47;4.57;;;32.40;70.40;;;;;;5075613;28;20457;-62
2022/06/23 14:58:08;;;;;;;5.87;4.27;;;32.40;71.10;;;;;;5077506;28;20442;-63
2022/06/23 15:00:49;;;;;;;6.97;5.10;;;32.30;69.70;;;;;;5077730;28;20535;-62
2022/06/23 15:03:28;;;;;;;8.57;4.97;;;32.30;69.50;;;;;;5077534;28;20438;-63
2022/06/23 15:06:03;;;;;;;15.67;5.23;;;32.30;73.00;;;;;;5077446;28;20431;-64
2022/06/23 15:08:36;;;;;;;8.80;4.73;;;32.30;72.20;;;;;;5077395;28;20436;-62
2022/06/23 15:11:08;;;;;;;9.00;4.67;;;32.20;71.80;;;;;;5077826;28;20474;-63
2022/06/23 15:13:43;;;;;;;8.60;4.67;;;32.40;71.10;;;;;;5077327;28;20434;-63
2022/06/23 15:16:15;;;;;;;9.33;5.70;;;32.50;69.10;;;;;;5076984;28;20487;-63
2022/06/23 15:18:52;;;;;;;7.10;4.83;;;32.50;69.20;;;;;;5077081;28;20445;-63
2022/06/23 15:24:15;;;;;;;6.70;4.70;;;32.90;72.60;;;;;;5043627;28;21037;-64
2022/06/23 15:26:51;;;;;;;5.77;4.50;;;33.00;70.10;;;;;;5077062;28;20426;-64
2022/06/23 15:29:22;;;;;;;8.77;4.70;;;32.90;70.60;;;;;;5076934;28;20437;-64
2022/06/23 15:31:57;;;;;;;9.70;5.53;;;32.90;70.20;;;;;;5076312;28;20473;-65
2022/06/23 15:34:28;;;;;;;9.90;4.70;;;32.80;71.20;;;;;;5076800;28;20449;-64
2022/06/23 15:37:03;;;;;;;10.93;5.40;;;32.60;70.50;;;;;;5076601;28;20462;-63
2022/06/23 15:39:40;;;;;;;8.33;5.33;;;32.60;71.80;;;;;;5076766;28;20438;-63
2022/06/23 15:42:11;;;;;;;8.90;5.57;;;32.60;71.30;;;;;;5076521;28;20564;-63
2022/06/23 15:44:47;;;;;;;9.80;5.00;;;32.60;70.60;;;;;;5076572;28;20434;-64
2022/06/23 15:47:21;;;;;;;9.93;5.10;;;32.60;69.30;;;;;;5076491;28;20485;-64
2022/06/23 15:49:53;;;;;;;8.33;5.50;;;32.70;70.70;;;;;;5076563;28;20438;-63
2022/06/23 15:52:28;;;;;;;8.50;4.60;;;32.70;70.50;;;;;;5076211;28;20469;-63
2022/06/23 15:55:03;;;;;;;10.50;5.67;;;32.60;70.20;;;;;;5076440;28;20771;-63
2022/06/23 15:57:38;;;;;;;8.30;3.90;;;32.40;68.70;;;;;;5076481;28;20805;-67
2022/06/23 16:00:16;;;;;;;10.63;4.97;;;32.40;68.20;;;;;;5076455;28;20438;-66
2022/06/23 16:02:49;;;;;;;9.87;4.50;;;32.40;69.70;;;;;;5076379;28;20533;-64
2022/06/23 16:05:19;;;;;;;14.13;4.50;;;32.50;69.10;;;;;;5075817;28;20434;-64
2022/06/23 16:07:55;;;;;;;7.80;4.80;;;32.60;66.50;;;;;;5076135;28;20442;-65
2022/06/23 16:10:27;;;;;;;8.73;4.60;;;32.50;68.10;;;;;;5075562;28;20780;-60
2022/06/23 16:12:57;;;;;;;9.00;5.43;;;32.50;69.00;;;;;;5076117;28;20434;-64
2022/06/23 16:15:30;;;;;;;10.33;4.30;;;32.60;70.90;;;;;;5076087;28;20497;-62
2022/06/23 16:17:59;;;;;;;12.97;4.40;;;32.50;69.40;;;;;;5076042;28;20442;-62
2022/06/23 16:20:30;;;;;;;5.57;3.90;;;32.40;69.20;;;;;;5075810;28;20450;-64
2022/06/23 16:23:05;;;;;;;9.67;4.67;;;32.40;67.50;;;;;;5075916;28;20434;-63
2022/06/23 16:25:42;;;;;;;6.33;4.20;;;32.40;70.00;;;;;;5075915;28;20456;-63
2022/06/23 16:28:22;;;;;;;12.53;4.43;;;32.40;68.90;;;;;;5075763;28;20620;-63
2022/06/23 16:30:50;;;;;;;4.90;4.43;;;32.30;68.20;;;;;;5075754;28;20474;-63
2022/06/23 16:33:38;;;;;;;10.07;4.20;;;32.20;69.30;;;;;;5075429;28;21019;-62
2022/06/23 16:36:16;;;;;;;5.63;5.00;;;32.20;69.90;;;;;;5075486;28;20465;-61
2022/06/23 16:38:51;;;;;;;8.00;4.20;;;32.10;70.30;;;;;;5076393;28;20441;-63
2022/06/23 16:41:40;;;;;;;6.13;4.20;;;32.10;69.10;;;;;;5076677;28;20473;-62
2022/06/23 16:44:19;;;;;;;8.60;4.30;;;32.10;70.40;;;;;;5076273;28;20445;-63
2022/06/23 16:46:55;;;;;;;6.20;4.00;;;32.00;70.10;;;;;;5075678;28;20438;-64
2022/06/23 16:49:28;;;;;;;8.70;4.20;;;32.00;70.60;;;;;;5075490;28;20441;-63
2022/06/23 16:52:02;;;;;;;8.63;4.77;;;32.00;70.50;;;;;;5075088;28;20995;-63
2022/06/23 16:54:41;;;;;;;6.37;4.00;;;32.00;70.30;;;;;;5075405;28;20438;-62
2022/06/23 16:57:13;;;;;;;8.87;4.90;;;32.00;70.80;;;;;;5077668;28;20462;-62
2022/06/23 16:59:44;;;;;;;8.40;5.13;;;32.00;69.40;;;;;;5075622;28;20434;-62
2022/06/23 17:02:18;;;;;;;10.52;5.22;;;32.00;70.00;;;;;;5076069;28;20454;-62
2022/06/23 17:04:49;;;;;;;6.77;4.40;;;32.00;70.20;;;;;;5075223;28;20184;-61
2022/06/23 17:07:28;;;;;;;9.77;4.60;;;31.90;69.70;;;;;;5075391;28;20462;-61
2022/06/23 17:10:05;;;;;;;6.03;5.30;;;31.90;70.50;;;;;;5080868;28;20438;-62
2022/06/23 17:12:41;;;;;;;8.93;5.77;;;31.90;72.00;;;;;;5089026;28;20470;-63
2022/06/23 17:15:12;;;;;;;8.97;5.03;;;31.80;71.70;;;;;;5075466;28;20791;-61
2022/06/23 17:17:43;;;;;;;9.07;5.47;;;31.80;72.60;;;;;;5074147;28;20444;-62
2022/06/23 17:20:21;;;;;;;5.90;5.20;;;31.70;73.30;;;;;;5074650;28;20454;-64
2022/06/23 17:22:50;;;;;;;5.57;4.17;;;31.60;73.70;;;;;;5074769;28;20438;-65
2022/06/23 17:25:23;;;;;;;6.50;4.53;;;31.60;74.20;;;;;;5074762;28;20454;-65
2022/06/23 17:27:56;;;;;;;9.90;5.10;;;31.50;73.40;;;;;;5074630;28;20438;-64
2022/06/23 17:30:28;;;;;;;8.70;5.13;;;31.40;74.10;;;;;;5074602;28;20434;-65
2022/06/23 17:33:05;;;;;;;5.83;4.47;;;31.40;73.90;;;;;;5074418;28;20457;-64
2022/06/23 17:35:38;;;;;;;7.10;3.60;;;31.30;73.20;;;;;;5074834;28;20469;-64
2022/06/23 17:43:48;;;;;;;5.93;3.60;;;31.00;73.30;;;;;;5074540;28;20449;-62
2022/06/23 17:46:20;;;;;;;6.50;3.60;;;30.90;73.60;;;;;;5074564;28;20517;-62
2022/06/23 17:48:53;;;;;;;5.50;3.10;;;30.90;73.00;;;;;;5074908;28;20430;-61
2022/06/23 17:51:24;;;;;;;10.70;3.67;;;30.80;74.30;;;;;;5074296;28;20474;-62
2022/06/23 17:54:02;;;;;;;13.87;4.70;;;30.70;75.00;;;;;;5074215;28;20907;-62
2022/06/23 17:56:50;;;;;;;7.73;3.47;;;30.60;75.60;;;;;;5074294;28;20472;-61
2022/06/23 17:59:23;;;;;;;7.33;3.77;;;30.50;75.40;;;;;;5074457;28;20847;-62
2022/06/23 18:01:59;;;;;;;6.40;4.00;;;30.50;75.60;;;;;;5074264;28;20481;-62
2022/06/23 18:04:35;;;;;;;7.37;3.30;;;30.40;75.90;;;;;;5074448;28;20537;-62
2022/06/23 18:07:01;;;;;;;5.40;3.00;;;30.40;75.70;;;;;;5073940;28;20529;-62
2022/06/23 18:09:30;;;;;;;10.17;5.20;;;30.30;75.50;;;;;;5074367;28;20865;-64
2022/06/23 18:12:06;;;;;;;5.27;2.83;;;30.20;76.60;;;;;;5073876;28;20996;-64
2022/06/23 18:14:42;;;;;;;7.90;2.83;;;30.20;76.90;;;;;;5074095;28;20905;-64
2022/06/23 18:17:20;;;;;;;6.07;3.20;;;30.00;78.00;;;;;;5074225;28;20465;-65
2022/06/23 18:19:53;;;;;;;4.93;2.40;;;29.90;79.00;;;;;;5074205;28;20438;-66
2022/06/23 18:22:23;;;;;;;6.37;3.20;;;29.90;79.80;;;;;;5073700;28;20474;-65
2022/06/23 18:24:54;;;;;;;4.83;2.70;;;29.80;80.60;;;;;;5073661;28;20979;-65
2022/06/23 18:27:28;;;;;;;4.33;2.73;;;29.70;80.70;;;;;;5074063;28;20437;-64
2022/06/23 18:30:00;;;;;;;5.73;2.60;;;29.60;81.40;;;;;;5073853;28;20444;-65
2022/06/23 18:32:35;;;;;;;8.30;2.93;;;29.50;82.00;;;;;;5073519;28;20485;-65
2022/06/23 18:35:17;;;;;;;7.47;3.40;;;29.40;82.50;;;;;;5074618;28;20453;-64
2022/06/23 18:37:49;;;;;;;6.10;2.30;;;29.30;83.00;;;;;;5073727;28;20488;-65
2022/06/23 18:40:25;;;;;;;7.47;3.00;;;29.30;83.20;;;;;;5074026;28;20437;-63
2022/06/23 18:42:58;;;;;;;7.70;3.80;;;29.10;84.00;;;;;;5073923;28;20445;-64
2022/06/23 18:45:34;;;;;;;3.13;2.37;;;29.10;84.60;;;;;;5074345;28;20435;-63
2022/06/23 18:48:07;;;;;;;6.60;2.53;;;29.00;85.20;;;;;;5073860;28;20461;-65
2022/06/23 18:50:42;;;;;;;6.17;2.20;;;28.90;85.20;;;;;;5073581;28;20438;-64
2022/06/23 18:53:21;;;;;;;6.70;2.80;;;28.80;86.50;;;;;;5073688;28;20438;-64
2022/06/23 18:55:56;;;;;;;5.60;2.47;;;28.70;86.20;;;;;;5073899;28;20445;-64
2022/06/23 18:58:28;;;;;;;4.80;2.63;;;28.70;86.90;;;;;;5073484;28;20598;-64
2022/06/23 19:01:02;;;;;;;5.37;2.37;;;28.60;87.10;;;;;;5073957;28;20979;-65